sensor_id;sensor_type;location;lat;lon;timestamp;P1;durP1;ratioP1;P2;durP2;ratioP2
76290;SDS011;65100;46.884;17.410;2023-03-14T00:00:07;7.25;;;3.15;;
76290;SDS011;65100;46.884;17.410;2023-03-14T00:02:34;8.20;;;3.13;;
76290;SDS011;65100;46.884;17.410;2023-03-14T00:05:00;7.87;;;3.20;;
76290;SDS011;65100;46.884;17.410;2023-03-14T00:07:31;8.55;;;2.97;;
76290;SDS011;65100;46.884;17.410;2023-03-14T00:09:59;6.75;;;3.20;;
76290;SDS011;65100;46.884;17.410;2023-03-14T00:12:24;7.23;;;3.10;;
76290;SDS011;65100;46.884;17.410;2023-03-14T00:14:50;7.70;;;3.30;;
76290;SDS011;65100;46.884;17.410;2023-03-14T00:17:15;7.50;;;3.30;;
76290;SDS011;65100;46.884;17.410;2023-03-14T00:19:40;7.17;;;2.80;;
76290;SDS011;65100;46.884;17.410;2023-03-14T00:22:06;7.40;;;3.07;;
76290;SDS011;65100;46.884;17.410;2023-03-14T00:24:31;8.02;;;2.95;;
76290;SDS011;65100;46.884;17.410;2023-03-14T00:26:57;7.30;;;3.23;;
76290;SDS011;65100;46.884;17.410;2023-03-14T00:29:22;7.77;;;3.27;;
76290;SDS011;65100;46.884;17.410;2023-03-14T00:31:48;8.73;;;3.10;;
76290;SDS011;65100;46.884;17.410;2023-03-14T00:34:13;7.50;;;2.80;;
76290;SDS011;65100;46.884;17.410;2023-03-14T00:36:39;8.23;;;3.20;;
76290;SDS011;65100;46.884;17.410;2023-03-14T00:39:04;8.40;;;3.30;;
76290;SDS011;65100;46.884;17.410;2023-03-14T00:41:29;7.35;;;3.08;;
76290;SDS011;65100;46.884;17.410;2023-03-14T00:43:55;7.53;;;3.17;;
76290;SDS011;65100;46.884;17.410;2023-03-14T00:46:20;8.37;;;3.40;;
76290;SDS011;65100;46.884;17.410;2023-03-14T00:48:46;9.10;;;3.30;;
76290;SDS011;65100;46.884;17.410;2023-03-14T00:51:12;7.97;;;2.90;;
76290;SDS011;65100;46.884;17.410;2023-03-14T00:53:40;7.38;;;3.00;;
76290;SDS011;65100;46.884;17.410;2023-03-14T00:56:06;6.75;;;2.90;;
76290;SDS011;65100;46.884;17.410;2023-03-14T00:58:34;7.53;;;3.00;;
76290;SDS011;65100;46.884;17.410;2023-03-14T01:01:05;8.27;;;2.90;;
76290;SDS011;65100;46.884;17.410;2023-03-14T01:03:34;7.97;;;3.08;;
76290;SDS011;65100;46.884;17.410;2023-03-14T01:06:33;7.43;;;3.20;;
76290;SDS011;65100;46.884;17.410;2023-03-14T01:08:53;7.30;;;3.30;;
76290;SDS011;65100;46.884;17.410;2023-03-14T01:13:47;7.22;;;3.25;;
76290;SDS011;65100;46.884;17.410;2023-03-14T01:16:13;8.25;;;2.92;;
76290;SDS011;65100;46.884;17.410;2023-03-14T01:18:40;7.40;;;3.00;;
76290;SDS011;65100;46.884;17.410;2023-03-14T01:21:13;7.20;;;3.20;;
76290;SDS011;65100;46.884;17.410;2023-03-14T01:23:46;6.57;;;2.92;;
76290;SDS011;65100;46.884;17.410;2023-03-14T01:26:14;6.65;;;2.90;;
76290;SDS011;65100;46.884;17.410;2023-03-14T01:28:41;8.35;;;2.90;;
76290;SDS011;65100;46.884;17.410;2023-03-14T01:31:07;7.27;;;2.90;;
76290;SDS011;65100;46.884;17.410;2023-03-14T01:33:34;6.93;;;2.80;;
76290;SDS011;65100;46.884;17.410;2023-03-14T01:36:00;6.88;;;2.70;;
76290;SDS011;65100;46.884;17.410;2023-03-14T01:38:30;6.15;;;2.88;;
76290;SDS011;65100;46.884;17.410;2023-03-14T01:40:57;6.47;;;2.73;;
76290;SDS011;65100;46.884;17.410;2023-03-14T01:43:22;7.50;;;2.80;;
76290;SDS011;65100;46.884;17.410;2023-03-14T01:51:28;6.57;;;2.57;;
76290;SDS011;65100;46.884;17.410;2023-03-14T01:54:02;6.88;;;3.00;;
76290;SDS011;65100;46.884;17.410;2023-03-14T01:56:46;6.82;;;2.50;;
76290;SDS011;65100;46.884;17.410;2023-03-14T01:59:19;7.03;;;2.60;;
76290;SDS011;65100;46.884;17.410;2023-03-14T02:01:45;7.20;;;2.60;;
76290;SDS011;65100;46.884;17.410;2023-03-14T02:04:13;6.55;;;2.67;;
76290;SDS011;65100;46.884;17.410;2023-03-14T02:09:14;6.95;;;2.78;;
76290;SDS011;65100;46.884;17.410;2023-03-14T02:11:41;7.00;;;2.90;;
76290;SDS011;65100;46.884;17.410;2023-03-14T02:14:07;6.67;;;2.60;;
76290;SDS011;65100;46.884;17.410;2023-03-14T02:16:39;6.30;;;2.72;;
76290;SDS011;65100;46.884;17.410;2023-03-14T02:19:04;6.07;;;2.50;;
76290;SDS011;65100;46.884;17.410;2023-03-14T02:21:38;7.43;;;3.03;;
76290;SDS011;65100;46.884;17.410;2023-03-14T02:24:14;7.13;;;2.83;;
76290;SDS011;65100;46.884;17.410;2023-03-14T02:29:28;6.95;;;2.92;;
76290;SDS011;65100;46.884;17.410;2023-03-14T02:31:57;6.88;;;2.88;;
76290;SDS011;65100;46.884;17.410;2023-03-14T02:34:22;6.77;;;2.77;;
76290;SDS011;65100;46.884;17.410;2023-03-14T02:36:49;7.75;;;3.10;;
76290;SDS011;65100;46.884;17.410;2023-03-14T02:39:15;7.77;;;3.27;;
76290;SDS011;65100;46.884;17.410;2023-03-14T02:41:49;7.03;;;2.80;;
76290;SDS011;65100;46.884;17.410;2023-03-14T02:44:14;7.60;;;3.00;;
76290;SDS011;65100;46.884;17.410;2023-03-14T02:46:40;8.65;;;3.00;;
76290;SDS011;65100;46.884;17.410;2023-03-14T02:49:09;7.23;;;3.00;;
76290;SDS011;65100;46.884;17.410;2023-03-14T02:51:37;7.22;;;3.33;;
76290;SDS011;65100;46.884;17.410;2023-03-14T02:54:04;7.75;;;3.00;;
76290;SDS011;65100;46.884;17.410;2023-03-14T02:56:30;7.50;;;3.33;;
76290;SDS011;65100;46.884;17.410;2023-03-14T02:58:56;7.00;;;2.90;;
76290;SDS011;65100;46.884;17.410;2023-03-14T03:01:22;7.70;;;3.10;;
76290;SDS011;65100;46.884;17.410;2023-03-14T03:03:48;9.53;;;3.13;;
76290;SDS011;65100;46.884;17.410;2023-03-14T03:06:13;6.43;;;2.83;;
76290;SDS011;65100;46.884;17.410;2023-03-14T03:08:40;6.40;;;2.77;;
76290;SDS011;65100;46.884;17.410;2023-03-14T03:11:06;7.68;;;2.95;;
76290;SDS011;65100;46.884;17.410;2023-03-14T03:13:31;7.23;;;2.80;;
76290;SDS011;65100;46.884;17.410;2023-03-14T03:15:57;6.82;;;2.95;;
76290;SDS011;65100;46.884;17.410;2023-03-14T03:18:22;7.77;;;2.87;;
76290;SDS011;65100;46.884;17.410;2023-03-14T03:20:48;8.10;;;3.00;;
76290;SDS011;65100;46.884;17.410;2023-03-14T03:23:13;6.93;;;3.03;;
76290;SDS011;65100;46.884;17.410;2023-03-14T03:25:39;6.93;;;2.70;;
76290;SDS011;65100;46.884;17.410;2023-03-14T03:28:04;7.50;;;2.97;;
76290;SDS011;65100;46.884;17.410;2023-03-14T03:30:33;7.35;;;2.85;;
76290;SDS011;65100;46.884;17.410;2023-03-14T03:33:02;7.53;;;2.80;;
76290;SDS011;65100;46.884;17.410;2023-03-14T03:35:27;7.03;;;3.00;;
76290;SDS011;65100;46.884;17.410;2023-03-14T03:37:53;7.03;;;2.87;;
76290;SDS011;65100;46.884;17.410;2023-03-14T03:40:18;6.50;;;2.53;;
76290;SDS011;65100;46.884;17.410;2023-03-14T03:42:44;7.37;;;2.90;;
76290;SDS011;65100;46.884;17.410;2023-03-14T03:45:09;8.30;;;3.27;;
76290;SDS011;65100;46.884;17.410;2023-03-14T03:47:35;7.28;;;2.88;;
76290;SDS011;65100;46.884;17.410;2023-03-14T03:50:00;6.87;;;2.63;;
76290;SDS011;65100;46.884;17.410;2023-03-14T03:52:26;6.75;;;2.47;;
76290;SDS011;65100;46.884;17.410;2023-03-14T03:54:51;6.00;;;2.60;;
76290;SDS011;65100;46.884;17.410;2023-03-14T03:57:17;6.73;;;2.60;;
76290;SDS011;65100;46.884;17.410;2023-03-14T03:59:42;6.47;;;2.70;;
76290;SDS011;65100;46.884;17.410;2023-03-14T04:02:07;6.03;;;2.30;;
76290;SDS011;65100;46.884;17.410;2023-03-14T04:04:33;6.90;;;2.50;;
76290;SDS011;65100;46.884;17.410;2023-03-14T04:06:58;6.17;;;2.30;;
76290;SDS011;65100;46.884;17.410;2023-03-14T04:09:24;7.40;;;2.60;;
76290;SDS011;65100;46.884;17.410;2023-03-14T04:11:49;6.88;;;2.50;;
76290;SDS011;65100;46.884;17.410;2023-03-14T04:14:15;8.83;;;2.67;;
76290;SDS011;65100;46.884;17.410;2023-03-14T04:16:41;7.53;;;2.80;;
76290;SDS011;65100;46.884;17.410;2023-03-14T04:19:06;7.03;;;2.80;;
76290;SDS011;65100;46.884;17.410;2023-03-14T04:21:31;6.13;;;2.60;;
76290;SDS011;65100;46.884;17.410;2023-03-14T04:23:57;7.95;;;2.70;;
76290;SDS011;65100;46.884;17.410;2023-03-14T04:26:22;6.10;;;2.50;;
76290;SDS011;65100;46.884;17.410;2023-03-14T04:28:48;5.43;;;2.30;;
76290;SDS011;65100;46.884;17.410;2023-03-14T04:31:14;7.70;;;2.67;;
76290;SDS011;65100;46.884;17.410;2023-03-14T04:33:42;6.67;;;2.40;;
76290;SDS011;65100;46.884;17.410;2023-03-14T04:36:08;6.55;;;2.80;;
76290;SDS011;65100;46.884;17.410;2023-03-14T04:38:34;6.17;;;2.63;;
76290;SDS011;65100;46.884;17.410;2023-03-14T04:40:59;6.70;;;2.50;;
76290;SDS011;65100;46.884;17.410;2023-03-14T04:43:25;6.60;;;2.80;;
76290;SDS011;65100;46.884;17.410;2023-03-14T04:45:53;7.00;;;2.50;;
76290;SDS011;65100;46.884;17.410;2023-03-14T04:48:19;7.13;;;2.63;;
76290;SDS011;65100;46.884;17.410;2023-03-14T04:50:45;6.45;;;2.50;;
76290;SDS011;65100;46.884;17.410;2023-03-14T04:53:12;7.85;;;2.83;;
76290;SDS011;65100;46.884;17.410;2023-03-14T04:55:37;6.63;;;2.60;;
76290;SDS011;65100;46.884;17.410;2023-03-14T04:58:03;7.10;;;2.63;;
76290;SDS011;65100;46.884;17.410;2023-03-14T05:00:28;6.77;;;2.60;;
76290;SDS011;65100;46.884;17.410;2023-03-14T05:02:54;7.20;;;3.20;;
76290;SDS011;65100;46.884;17.410;2023-03-14T05:05:19;9.93;;;3.15;;
76290;SDS011;65100;46.884;17.410;2023-03-14T05:07:45;9.37;;;3.60;;
76290;SDS011;65100;46.884;17.410;2023-03-14T05:10:11;6.63;;;3.13;;
76290;SDS011;65100;46.884;17.410;2023-03-14T05:12:36;7.07;;;2.80;;
76290;SDS011;65100;46.884;17.410;2023-03-14T05:15:02;6.28;;;2.53;;
76290;SDS011;65100;46.884;17.410;2023-03-14T05:17:29;7.90;;;2.63;;
76290;SDS011;65100;46.884;17.410;2023-03-14T05:19:55;6.88;;;2.42;;
76290;SDS011;65100;46.884;17.410;2023-03-14T05:22:20;7.07;;;2.90;;
76290;SDS011;65100;46.884;17.410;2023-03-14T05:24:46;5.80;;;2.33;;
76290;SDS011;65100;46.884;17.410;2023-03-14T05:27:11;6.13;;;2.40;;
76290;SDS011;65100;46.884;17.410;2023-03-14T05:29:36;6.87;;;2.70;;
76290;SDS011;65100;46.884;17.410;2023-03-14T05:32:02;7.17;;;2.87;;
76290;SDS011;65100;46.884;17.410;2023-03-14T05:34:28;9.07;;;2.65;;
76290;SDS011;65100;46.884;17.410;2023-03-14T05:36:53;7.87;;;2.40;;
76290;SDS011;65100;46.884;17.410;2023-03-14T05:39:19;7.38;;;2.13;;
76290;SDS011;65100;46.884;17.410;2023-03-14T05:41:45;6.03;;;2.50;;
76290;SDS011;65100;46.884;17.410;2023-03-14T05:44:10;7.35;;;2.45;;
76290;SDS011;65100;46.884;17.410;2023-03-14T05:46:36;6.80;;;2.20;;
76290;SDS011;65100;46.884;17.410;2023-03-14T05:49:01;6.80;;;2.37;;
76290;SDS011;65100;46.884;17.410;2023-03-14T05:54:13;5.80;;;2.10;;
76290;SDS011;65100;46.884;17.410;2023-03-14T05:56:38;8.48;;;3.45;;
76290;SDS011;65100;46.884;17.410;2023-03-14T05:59:03;6.90;;;2.50;;
76290;SDS011;65100;46.884;17.410;2023-03-14T06:01:29;7.90;;;2.50;;
76290;SDS011;65100;46.884;17.410;2023-03-14T06:04:15;6.63;;;2.35;;
76290;SDS011;65100;46.884;17.410;2023-03-14T06:06:41;7.03;;;2.40;;
76290;SDS011;65100;46.884;17.410;2023-03-14T06:09:06;6.43;;;2.30;;
76290;SDS011;65100;46.884;17.410;2023-03-14T06:11:32;6.47;;;2.30;;
76290;SDS011;65100;46.884;17.410;2023-03-14T06:13:57;7.70;;;2.37;;
76290;SDS011;65100;46.884;17.410;2023-03-14T06:16:23;7.43;;;2.53;;
76290;SDS011;65100;46.884;17.410;2023-03-14T06:18:48;6.75;;;2.58;;
76290;SDS011;65100;46.884;17.410;2023-03-14T06:21:14;6.40;;;2.50;;
76290;SDS011;65100;46.884;17.410;2023-03-14T06:23:40;5.57;;;2.05;;
76290;SDS011;65100;46.884;17.410;2023-03-14T06:26:05;7.17;;;2.20;;
76290;SDS011;65100;46.884;17.410;2023-03-14T06:28:31;5.70;;;2.23;;
76290;SDS011;65100;46.884;17.410;2023-03-14T06:30:57;6.23;;;2.37;;
76290;SDS011;65100;46.884;17.410;2023-03-14T06:33:24;5.75;;;2.20;;
76290;SDS011;65100;46.884;17.410;2023-03-14T06:35:49;5.40;;;2.10;;
76290;SDS011;65100;46.884;17.410;2023-03-14T06:38:14;6.43;;;2.40;;
76290;SDS011;65100;46.884;17.410;2023-03-14T06:40:40;6.55;;;2.20;;
76290;SDS011;65100;46.884;17.410;2023-03-14T06:43:05;5.83;;;2.50;;
76290;SDS011;65100;46.884;17.410;2023-03-14T06:45:31;5.57;;;2.00;;
76290;SDS011;65100;46.884;17.410;2023-03-14T06:47:56;6.55;;;2.20;;
76290;SDS011;65100;46.884;17.410;2023-03-14T06:50:22;7.37;;;3.13;;
76290;SDS011;65100;46.884;17.410;2023-03-14T06:52:47;10.07;;;2.93;;
76290;SDS011;65100;46.884;17.410;2023-03-14T06:55:16;8.82;;;2.03;;
76290;SDS011;65100;46.884;17.410;2023-03-14T06:57:42;7.60;;;2.20;;
76290;SDS011;65100;46.884;17.410;2023-03-14T07:00:09;6.95;;;2.10;;
76290;SDS011;65100;46.884;17.410;2023-03-14T07:02:36;6.57;;;2.20;;
76290;SDS011;65100;46.884;17.410;2023-03-14T07:05:01;5.53;;;2.10;;
76290;SDS011;65100;46.884;17.410;2023-03-14T07:07:28;6.13;;;2.10;;
76290;SDS011;65100;46.884;17.410;2023-03-14T07:09:53;7.20;;;2.60;;
76290;SDS011;65100;46.884;17.410;2023-03-14T07:12:19;7.13;;;2.43;;
76290;SDS011;65100;46.884;17.410;2023-03-14T07:14:44;8.73;;;2.50;;
76290;SDS011;65100;46.884;17.410;2023-03-14T07:17:09;6.80;;;2.70;;
76290;SDS011;65100;46.884;17.410;2023-03-14T07:19:35;6.90;;;2.30;;
76290;SDS011;65100;46.884;17.410;2023-03-14T07:22:01;7.18;;;2.40;;
76290;SDS011;65100;46.884;17.410;2023-03-14T07:24:47;7.38;;;2.65;;
76290;SDS011;65100;46.884;17.410;2023-03-14T07:27:13;7.13;;;2.77;;
76290;SDS011;65100;46.884;17.410;2023-03-14T07:29:38;8.47;;;2.30;;
76290;SDS011;65100;46.884;17.410;2023-03-14T07:32:04;8.38;;;2.80;;
76290;SDS011;65100;46.884;17.410;2023-03-14T07:34:29;8.57;;;2.90;;
76290;SDS011;65100;46.884;17.410;2023-03-14T07:36:54;9.70;;;2.80;;
76290;SDS011;65100;46.884;17.410;2023-03-14T07:39:20;6.63;;;2.37;;
76290;SDS011;65100;46.884;17.410;2023-03-14T07:41:45;7.23;;;2.20;;
76290;SDS011;65100;46.884;17.410;2023-03-14T07:44:11;6.72;;;2.20;;
76290;SDS011;65100;46.884;17.410;2023-03-14T07:46:36;6.70;;;2.13;;
76290;SDS011;65100;46.884;17.410;2023-03-14T07:49:02;6.63;;;2.10;;
76290;SDS011;65100;46.884;17.410;2023-03-14T07:51:27;6.72;;;2.30;;
76290;SDS011;65100;46.884;17.410;2023-03-14T07:53:53;6.57;;;2.23;;
76290;SDS011;65100;46.884;17.410;2023-03-14T07:56:18;6.10;;;2.20;;
76290;SDS011;65100;46.884;17.410;2023-03-14T07:58:43;5.30;;;2.20;;
76290;SDS011;65100;46.884;17.410;2023-03-14T08:01:09;5.47;;;2.03;;
76290;SDS011;65100;46.884;17.410;2023-03-14T08:03:35;5.30;;;2.10;;
76290;SDS011;65100;46.884;17.410;2023-03-14T08:06:00;6.93;;;2.20;;
76290;SDS011;65100;46.884;17.410;2023-03-14T08:08:25;5.90;;;2.10;;
76290;SDS011;65100;46.884;17.410;2023-03-14T08:10:51;7.00;;;2.20;;
76290;SDS011;65100;46.884;17.410;2023-03-14T08:13:16;6.67;;;2.50;;
76290;SDS011;65100;46.884;17.410;2023-03-14T08:15:42;6.50;;;2.10;;
76290;SDS011;65100;46.884;17.410;2023-03-14T08:18:07;6.27;;;2.10;;
76290;SDS011;65100;46.884;17.410;2023-03-14T08:20:33;7.50;;;2.33;;
76290;SDS011;65100;46.884;17.410;2023-03-14T08:23:00;5.70;;;1.93;;
76290;SDS011;65100;46.884;17.410;2023-03-14T08:25:27;8.98;;;2.20;;
76290;SDS011;65100;46.884;17.410;2023-03-14T08:27:53;9.43;;;2.30;;
76290;SDS011;65100;46.884;17.410;2023-03-14T08:30:19;5.97;;;2.40;;
76290;SDS011;65100;46.884;17.410;2023-03-14T08:32:46;8.00;;;2.10;;
76290;SDS011;65100;46.884;17.410;2023-03-14T08:35:12;7.90;;;2.00;;
76290;SDS011;65100;46.884;17.410;2023-03-14T08:37:37;6.68;;;2.30;;
76290;SDS011;65100;46.884;17.410;2023-03-14T08:40:04;5.77;;;2.13;;
76290;SDS011;65100;46.884;17.410;2023-03-14T08:42:35;6.25;;;2.00;;
76290;SDS011;65100;46.884;17.410;2023-03-14T08:45:01;7.00;;;2.33;;
76290;SDS011;65100;46.884;17.410;2023-03-14T08:47:26;6.57;;;2.10;;
76290;SDS011;65100;46.884;17.410;2023-03-14T08:49:52;8.13;;;2.35;;
76290;SDS011;65100;46.884;17.410;2023-03-14T08:52:18;6.97;;;2.30;;
76290;SDS011;65100;46.884;17.410;2023-03-14T08:54:43;8.20;;;2.40;;
76290;SDS011;65100;46.884;17.410;2023-03-14T08:57:09;6.40;;;2.40;;
76290;SDS011;65100;46.884;17.410;2023-03-14T08:59:34;6.57;;;2.53;;
76290;SDS011;65100;46.884;17.410;2023-03-14T09:02:00;8.80;;;2.42;;
76290;SDS011;65100;46.884;17.410;2023-03-14T09:04:28;6.77;;;2.30;;
76290;SDS011;65100;46.884;17.410;2023-03-14T09:06:54;6.95;;;2.72;;
76290;SDS011;65100;46.884;17.410;2023-03-14T09:09:19;6.40;;;2.30;;
76290;SDS011;65100;46.884;17.410;2023-03-14T09:11:45;6.60;;;2.53;;
76290;SDS011;65100;46.884;17.410;2023-03-14T09:14:10;7.00;;;2.30;;
76290;SDS011;65100;46.884;17.410;2023-03-14T09:16:36;6.32;;;2.33;;
76290;SDS011;65100;46.884;17.410;2023-03-14T09:19:02;9.70;;;2.90;;
76290;SDS011;65100;46.884;17.410;2023-03-14T09:21:28;6.32;;;2.35;;
76290;SDS011;65100;46.884;17.410;2023-03-14T09:23:53;6.77;;;2.13;;
76290;SDS011;65100;46.884;17.410;2023-03-14T09:26:19;6.10;;;2.20;;
76290;SDS011;65100;46.884;17.410;2023-03-14T09:28:44;7.90;;;2.50;;
76290;SDS011;65100;46.884;17.410;2023-03-14T09:31:10;6.30;;;2.10;;
76290;SDS011;65100;46.884;17.410;2023-03-14T09:33:37;6.50;;;2.15;;
76290;SDS011;65100;46.884;17.410;2023-03-14T09:36:03;6.00;;;2.28;;
76290;SDS011;65100;46.884;17.410;2023-03-14T09:38:29;7.95;;;2.17;;
76290;SDS011;65100;46.884;17.410;2023-03-14T09:40:55;5.87;;;2.10;;
76290;SDS011;65100;46.884;17.410;2023-03-14T09:43:23;5.30;;;2.20;;
76290;SDS011;65100;46.884;17.410;2023-03-14T09:45:51;6.13;;;2.00;;
76290;SDS011;65100;46.884;17.410;2023-03-14T09:48:21;6.90;;;2.10;;
76290;SDS011;65100;46.884;17.410;2023-03-14T09:50:50;7.13;;;2.20;;
76290;SDS011;65100;46.884;17.410;2023-03-14T09:53:19;6.97;;;2.40;;
76290;SDS011;65100;46.884;17.410;2023-03-14T09:55:49;6.57;;;2.17;;
76290;SDS011;65100;46.884;17.410;2023-03-14T09:58:21;5.78;;;1.90;;
76290;SDS011;65100;46.884;17.410;2023-03-14T10:00:47;6.85;;;2.10;;
76290;SDS011;65100;46.884;17.410;2023-03-14T10:05:59;7.63;;;2.10;;
76290;SDS011;65100;46.884;17.410;2023-03-14T10:08:25;5.45;;;2.08;;
76290;SDS011;65100;46.884;17.410;2023-03-14T10:10:51;7.45;;;2.03;;
76290;SDS011;65100;46.884;17.410;2023-03-14T10:15:55;7.68;;;2.15;;
76290;SDS011;65100;46.884;17.410;2023-03-14T10:18:22;6.38;;;2.13;;
76290;SDS011;65100;46.884;17.410;2023-03-14T10:20:49;6.70;;;2.28;;
76290;SDS011;65100;46.884;17.410;2023-03-14T10:23:29;5.60;;;2.10;;
76290;SDS011;65100;46.884;17.410;2023-03-14T10:28:42;5.68;;;2.20;;
76290;SDS011;65100;46.884;17.410;2023-03-14T10:31:13;5.43;;;2.20;;
76290;SDS011;65100;46.884;17.410;2023-03-14T10:33:39;6.88;;;2.47;;
76290;SDS011;65100;46.884;17.410;2023-03-14T10:36:17;5.15;;;2.17;;
76290;SDS011;65100;46.884;17.410;2023-03-14T10:38:46;6.97;;;2.40;;
76290;SDS011;65100;46.884;17.410;2023-03-14T10:41:33;6.85;;;2.35;;
76290;SDS011;65100;46.884;17.410;2023-03-14T10:43:58;6.70;;;2.50;;
76290;SDS011;65100;46.884;17.410;2023-03-14T10:46:26;6.18;;;2.20;;
76290;SDS011;65100;46.884;17.410;2023-03-14T10:48:55;6.15;;;2.42;;
76290;SDS011;65100;46.884;17.410;2023-03-14T10:51:27;7.53;;;2.30;;
76290;SDS011;65100;46.884;17.410;2023-03-14T10:56:26;7.43;;;2.20;;
76290;SDS011;65100;46.884;17.410;2023-03-14T10:58:57;7.10;;;2.30;;
76290;SDS011;65100;46.884;17.410;2023-03-14T11:07:03;6.35;;;2.25;;
76290;SDS011;65100;46.884;17.410;2023-03-14T11:15:06;6.88;;;2.30;;
76290;SDS011;65100;46.884;17.410;2023-03-14T11:20:55;7.03;;;2.38;;
76290;SDS011;65100;46.884;17.410;2023-03-14T11:23:30;5.88;;;2.40;;
76290;SDS011;65100;46.884;17.410;2023-03-14T11:28:35;6.75;;;2.53;;
76290;SDS011;65100;46.884;17.410;2023-03-14T11:39:26;6.97;;;2.40;;
76290;SDS011;65100;46.884;17.410;2023-03-14T11:41:59;6.55;;;2.40;;
76290;SDS011;65100;46.884;17.410;2023-03-14T11:44:34;8.30;;;2.70;;
76290;SDS011;65100;46.884;17.410;2023-03-14T11:47:05;7.47;;;2.60;;
76290;SDS011;65100;46.884;17.410;2023-03-14T11:52:30;5.43;;;2.23;;
76290;SDS011;65100;46.884;17.410;2023-03-14T11:57:25;8.05;;;2.60;;
76290;SDS011;65100;46.884;17.410;2023-03-14T12:10:52;7.53;;;2.80;;
76290;SDS011;65100;46.884;17.410;2023-03-14T12:13:21;7.30;;;2.70;;
76290;SDS011;65100;46.884;17.410;2023-03-14T12:15:54;7.03;;;2.60;;
76290;SDS011;65100;46.884;17.410;2023-03-14T12:18:32;7.50;;;2.70;;
76290;SDS011;65100;46.884;17.410;2023-03-14T12:21:00;6.93;;;2.85;;
76290;SDS011;65100;46.884;17.410;2023-03-14T12:23:28;6.97;;;2.90;;
76290;SDS011;65100;46.884;17.410;2023-03-14T12:28:37;7.82;;;2.67;;
76290;SDS011;65100;46.884;17.410;2023-03-14T12:36:56;6.20;;;2.60;;
76290;SDS011;65100;46.884;17.410;2023-03-14T12:42:10;10.43;;;3.70;;
76290;SDS011;65100;46.884;17.410;2023-03-14T12:50:43;6.03;;;2.40;;
76290;SDS011;65100;46.884;17.410;2023-03-14T12:55:44;6.35;;;2.38;;
76290;SDS011;65100;46.884;17.410;2023-03-14T13:01:01;7.15;;;2.83;;
76290;SDS011;65100;46.884;17.410;2023-03-14T13:03:39;6.80;;;2.60;;
76290;SDS011;65100;46.884;17.410;2023-03-14T13:06:10;8.60;;;2.70;;
76290;SDS011;65100;46.884;17.410;2023-03-14T13:11:10;6.65;;;2.60;;
76290;SDS011;65100;46.884;17.410;2023-03-14T13:13:47;6.40;;;2.67;;
76290;SDS011;65100;46.884;17.410;2023-03-14T13:16:19;7.83;;;2.80;;
76290;SDS011;65100;46.884;17.410;2023-03-14T13:18:46;5.75;;;2.50;;
76290;SDS011;65100;46.884;17.410;2023-03-14T13:21:29;6.35;;;2.45;;
76290;SDS011;65100;46.884;17.410;2023-03-14T13:24:01;6.47;;;2.50;;
76290;SDS011;65100;46.884;17.410;2023-03-14T13:26:46;6.07;;;2.55;;
76290;SDS011;65100;46.884;17.410;2023-03-14T13:29:21;8.30;;;2.37;;
76290;SDS011;65100;46.884;17.410;2023-03-14T13:31:55;6.95;;;2.50;;
76290;SDS011;65100;46.884;17.410;2023-03-14T13:34:25;7.38;;;2.40;;
76290;SDS011;65100;46.884;17.410;2023-03-14T13:36:52;7.00;;;2.43;;
76290;SDS011;65100;46.884;17.410;2023-03-14T13:39:19;6.70;;;2.50;;
76290;SDS011;65100;46.884;17.410;2023-03-14T13:41:54;7.30;;;2.45;;
76290;SDS011;65100;46.884;17.410;2023-03-14T13:44:27;7.07;;;2.20;;
76290;SDS011;65100;46.884;17.410;2023-03-14T13:47:00;7.40;;;2.60;;
76290;SDS011;65100;46.884;17.410;2023-03-14T13:49:27;8.77;;;2.90;;
76290;SDS011;65100;46.884;17.410;2023-03-14T13:51:56;8.25;;;2.90;;
76290;SDS011;65100;46.884;17.410;2023-03-14T13:54:22;6.80;;;2.40;;
76290;SDS011;65100;46.884;17.410;2023-03-14T13:56:48;6.60;;;2.20;;
76290;SDS011;65100;46.884;17.410;2023-03-14T13:59:24;7.32;;;2.30;;
76290;SDS011;65100;46.884;17.410;2023-03-14T14:01:52;7.80;;;2.40;;
76290;SDS011;65100;46.884;17.410;2023-03-14T14:04:23;8.80;;;2.40;;
76290;SDS011;65100;46.884;17.410;2023-03-14T14:06:56;9.05;;;2.65;;
76290;SDS011;65100;46.884;17.410;2023-03-14T14:09:30;8.70;;;2.40;;
76290;SDS011;65100;46.884;17.410;2023-03-14T14:12:05;8.13;;;2.13;;
76290;SDS011;65100;46.884;17.410;2023-03-14T14:14:40;7.70;;;2.50;;
76290;SDS011;65100;46.884;17.410;2023-03-14T14:17:10;8.80;;;2.40;;
76290;SDS011;65100;46.884;17.410;2023-03-14T14:19:38;10.63;;;2.20;;
76290;SDS011;65100;46.884;17.410;2023-03-14T14:22:05;8.43;;;2.20;;
76290;SDS011;65100;46.884;17.410;2023-03-14T14:24:34;7.32;;;2.50;;
76290;SDS011;65100;46.884;17.410;2023-03-14T14:27:08;7.88;;;2.10;;
76290;SDS011;65100;46.884;17.410;2023-03-14T14:29:38;8.73;;;2.10;;
76290;SDS011;65100;46.884;17.410;2023-03-14T14:34:43;7.10;;;1.80;;
76290;SDS011;65100;46.884;17.410;2023-03-14T14:37:21;6.15;;;1.90;;
76290;SDS011;65100;46.884;17.410;2023-03-14T14:39:48;6.32;;;1.75;;
76290;SDS011;65100;46.884;17.410;2023-03-14T14:42:18;5.82;;;1.90;;
76290;SDS011;65100;46.884;17.410;2023-03-14T14:44:47;9.53;;;2.13;;
76290;SDS011;65100;46.884;17.410;2023-03-14T14:47:16;8.63;;;2.20;;
76290;SDS011;65100;46.884;17.410;2023-03-14T14:49:44;5.85;;;2.00;;
76290;SDS011;65100;46.884;17.410;2023-03-14T14:52:17;7.15;;;2.33;;
76290;SDS011;65100;46.884;17.410;2023-03-14T14:55:11;8.30;;;2.20;;
76290;SDS011;65100;46.884;17.410;2023-03-14T14:57:53;8.47;;;2.03;;
76290;SDS011;65100;46.884;17.410;2023-03-14T15:00:20;7.22;;;2.17;;
76290;SDS011;65100;46.884;17.410;2023-03-14T15:02:53;6.43;;;2.03;;
76290;SDS011;65100;46.884;17.410;2023-03-14T15:05:24;5.18;;;1.92;;
76290;SDS011;65100;46.884;17.410;2023-03-14T15:07:51;6.45;;;1.90;;
76290;SDS011;65100;46.884;17.410;2023-03-14T15:10:18;6.73;;;1.80;;
76290;SDS011;65100;46.884;17.410;2023-03-14T15:12:48;5.70;;;2.00;;
76290;SDS011;65100;46.884;17.410;2023-03-14T15:15:14;5.53;;;1.87;;
76290;SDS011;65100;46.884;17.410;2023-03-14T15:17:40;7.75;;;2.20;;
76290;SDS011;65100;46.884;17.410;2023-03-14T15:20:09;5.75;;;2.40;;
76290;SDS011;65100;46.884;17.410;2023-03-14T15:22:38;5.97;;;2.23;;
76290;SDS011;65100;46.884;17.410;2023-03-14T15:25:04;6.03;;;2.33;;
76290;SDS011;65100;46.884;17.410;2023-03-14T15:27:31;5.90;;;2.10;;
76290;SDS011;65100;46.884;17.410;2023-03-14T15:29:57;6.55;;;2.10;;
76290;SDS011;65100;46.884;17.410;2023-03-14T15:32:24;5.35;;;2.50;;
76290;SDS011;65100;46.884;17.410;2023-03-14T15:34:52;6.70;;;2.50;;
76290;SDS011;65100;46.884;17.410;2023-03-14T15:37:19;6.50;;;2.38;;
76290;SDS011;65100;46.884;17.410;2023-03-14T15:39:44;5.03;;;2.20;;
76290;SDS011;65100;46.884;17.410;2023-03-14T15:42:10;5.72;;;2.10;;
76290;SDS011;65100;46.884;17.410;2023-03-14T15:44:36;6.82;;;2.20;;
76290;SDS011;65100;46.884;17.410;2023-03-14T15:47:02;5.70;;;2.00;;
76290;SDS011;65100;46.884;17.410;2023-03-14T15:49:28;6.23;;;2.07;;
76290;SDS011;65100;46.884;17.410;2023-03-14T15:51:54;5.22;;;1.90;;
76290;SDS011;65100;46.884;17.410;2023-03-14T15:54:19;5.30;;;1.97;;
76290;SDS011;65100;46.884;17.410;2023-03-14T15:56:45;5.15;;;2.20;;
76290;SDS011;65100;46.884;17.410;2023-03-14T15:59:10;6.40;;;2.57;;
76290;SDS011;65100;46.884;17.410;2023-03-14T16:01:36;6.10;;;2.60;;
76290;SDS011;65100;46.884;17.410;2023-03-14T16:04:02;6.53;;;2.57;;
76290;SDS011;65100;46.884;17.410;2023-03-14T16:06:28;6.68;;;2.53;;
76290;SDS011;65100;46.884;17.410;2023-03-14T16:08:53;7.20;;;2.70;;
76290;SDS011;65100;46.884;17.410;2023-03-14T16:11:19;6.72;;;2.30;;